createdAt,value
2022-09-02T00:01:54.588Z,2.50
2022-09-02T00:04:22.970Z,2.20
2022-09-02T00:06:50.508Z,2.30
2022-09-02T00:09:18.056Z,2.60
2022-09-02T00:11:46.267Z,3.57
2022-09-02T00:14:14.895Z,3.20
2022-09-02T00:16:42.631Z,2.53
2022-09-02T00:19:10.718Z,2.73
2022-09-02T00:21:37.937Z,2.90
2022-09-02T00:24:05.538Z,3.20
2022-09-02T00:26:32.067Z,2.97
2022-09-02T00:28:58.554Z,2.20
2022-09-02T00:31:26.184Z,2.77
2022-09-02T00:33:53.485Z,2.60
2022-09-02T00:36:20.440Z,2.50
2022-09-02T00:38:47.283Z,2.30
2022-09-02T00:41:14.872Z,2.73
2022-09-02T00:44:04.774Z,2.60
2022-09-02T00:46:32.570Z,3.60
2022-09-02T00:49:08.714Z,3.00
2022-09-02T00:51:44.845Z,3.30
2022-09-02T00:54:13.026Z,3.10
2022-09-02T00:56:40.721Z,2.80
2022-09-02T00:59:07.987Z,3.27
2022-09-02T01:01:34.757Z,2.90
2022-09-02T01:04:01.341Z,2.93
2022-09-02T01:06:29.187Z,2.90
2022-09-02T01:08:58.354Z,2.90
2022-09-02T01:11:27.644Z,3.17
2022-09-02T01:13:54.981Z,3.10
2022-09-02T01:16:27.619Z,3.33
2022-09-02T01:18:55.726Z,4.20
2022-09-02T01:21:23.163Z,4.33
2022-09-02T01:23:50.241Z,4.37
2022-09-02T01:26:19.045Z,3.60
2022-09-02T01:28:45.650Z,4.10
2022-09-02T01:31:12.379Z,3.17
2022-09-02T01:33:39.436Z,3.70
2022-09-02T01:36:06.097Z,3.30
2022-09-02T01:38:33.090Z,3.57
2022-09-02T01:40:59.710Z,3.80
2022-09-02T01:43:27.496Z,3.87
2022-09-02T01:45:56.214Z,3.83
2022-09-02T01:48:25.358Z,5.03
2022-09-02T01:50:54.670Z,6.77
2022-09-02T01:53:21.709Z,5.50
2022-09-02T01:55:48.420Z,6.27
2022-09-02T01:58:15.206Z,7.30
2022-09-02T02:00:42.144Z,5.13
2022-09-02T02:03:09.032Z,5.33
2022-09-02T02:05:36.559Z,5.80
2022-09-02T02:08:04.040Z,4.33
2022-09-02T02:10:30.814Z,4.37
2022-09-02T02:12:57.600Z,4.23
2022-09-02T02:17:50.366Z,2.93
2022-09-02T02:20:18.093Z,3.90
2022-09-02T02:22:46.044Z,3.30
2022-09-02T02:25:14.913Z,3.57
2022-09-02T02:27:43.713Z,3.33
2022-09-02T02:30:11.824Z,3.93
2022-09-02T02:32:38.476Z,3.40
2022-09-02T02:35:06.625Z,4.20
2022-09-02T02:37:34.217Z,3.40
2022-09-02T02:40:00.791Z,2.90
2022-09-02T02:42:27.962Z,3.00
2022-09-02T02:44:55.083Z,3.40
2022-09-02T02:47:22.245Z,3.30
2022-09-02T02:49:48.801Z,3.27
2022-09-02T02:52:16.200Z,2.73
2022-09-02T02:54:42.972Z,3.13
2022-09-02T02:57:10.267Z,3.57
2022-09-02T02:59:37.004Z,3.43
2022-09-02T03:02:04.760Z,2.90
2022-09-02T03:04:31.956Z,2.80
2022-09-02T03:06:58.542Z,2.90
2022-09-02T03:09:26.022Z,3.23
2022-09-02T03:11:52.833Z,3.87
2022-09-02T03:14:19.619Z,4.10
2022-09-02T03:16:46.841Z,3.20
2022-09-02T03:19:14.271Z,3.27
2022-09-02T03:21:41.923Z,3.10
2022-09-02T03:24:10.871Z,3.10
2022-09-02T03:26:38.707Z,3.07
2022-09-02T03:29:05.703Z,3.27
2022-09-02T03:31:32.606Z,3.30
2022-09-02T03:33:59.439Z,3.43
2022-09-02T03:36:28.513Z,3.07
2022-09-02T03:38:56.568Z,2.73
2022-09-02T03:41:23.381Z,2.90
2022-09-02T03:43:50.479Z,2.50
2022-09-02T03:46:17.785Z,3.07
2022-09-02T03:48:45.111Z,2.97
2022-09-02T03:51:12.952Z,3.07
2022-09-02T03:53:39.694Z,2.40
2022-09-02T03:56:07.497Z,2.67
2022-09-02T03:58:35.092Z,2.60
2022-09-02T04:01:02.735Z,3.30
2022-09-02T04:03:30.265Z,2.97
2022-09-02T04:05:56.900Z,2.80
2022-09-02T04:08:26.196Z,3.13
2022-09-02T04:10:56.371Z,3.30
2022-09-02T04:13:23.278Z,3.60
2022-09-02T04:15:50.371Z,3.17
2022-09-02T04:18:58.657Z,3.33
2022-09-02T04:21:44.059Z,4.20
2022-09-02T04:24:11.985Z,3.93
2022-09-02T04:26:44.974Z,3.47
2022-09-02T04:29:12.792Z,4.93
2022-09-02T04:31:40.960Z,3.27
2022-09-02T04:34:07.609Z,3.67
2022-09-02T04:36:34.627Z,3.10
2022-09-02T04:39:06.101Z,2.80
2022-09-02T04:41:35.550Z,3.30
2022-09-02T04:44:05.532Z,2.83
2022-09-02T04:46:36.484Z,3.40
2022-09-02T04:49:06.958Z,5.03
2022-09-02T04:51:33.944Z,3.03
2022-09-02T04:54:02.056Z,3.03
2022-09-02T04:56:31.135Z,2.93
2022-09-02T04:58:59.548Z,2.97
2022-09-02T05:01:32.358Z,3.13
2022-09-02T05:04:04.222Z,3.30
2022-09-02T05:06:37.114Z,2.67
2022-09-02T05:09:08.004Z,2.87
2022-09-02T05:11:36.566Z,3.00
2022-09-02T05:14:05.212Z,3.77
2022-09-02T05:16:36.773Z,3.23
2022-09-02T05:19:07.547Z,3.30
2022-09-02T05:21:42.701Z,3.37
2022-09-02T05:24:12.402Z,3.70
2022-09-02T05:26:41.796Z,3.03
2022-09-02T05:29:09.863Z,3.03
2022-09-02T05:31:38.725Z,2.83
2022-09-02T05:34:05.343Z,2.90
2022-09-02T05:36:32.912Z,3.10
2022-09-02T05:39:00.730Z,3.33
2022-09-02T05:41:27.991Z,3.30
2022-09-02T05:44:03.534Z,2.57
2022-09-02T05:46:31.453Z,2.70
2022-09-02T05:49:17.988Z,2.67
2022-09-02T05:51:54.269Z,3.17
2022-09-02T05:54:30.216Z,3.50
2022-09-02T05:57:00.280Z,2.80
2022-09-02T05:59:27.959Z,2.87
2022-09-02T06:01:56.573Z,2.90
2022-09-02T06:04:23.213Z,3.77
2022-09-02T06:06:51.023Z,2.83
2022-09-02T06:09:19.785Z,3.30
2022-09-02T06:11:49.419Z,3.00
2022-09-02T06:14:21.949Z,3.07
2022-09-02T06:16:50.757Z,3.10
2022-09-02T06:19:26.148Z,3.40
2022-09-02T06:21:54.133Z,3.20
2022-09-02T06:24:23.311Z,2.80
2022-09-02T06:26:50.726Z,3.77
2022-09-02T06:29:22.007Z,3.60
2022-09-02T06:31:49.349Z,3.40
2022-09-02T06:34:17.746Z,3.20
2022-09-02T06:36:46.828Z,3.40
2022-09-02T06:39:17.596Z,4.07
2022-09-02T06:41:46.749Z,3.90
2022-09-02T06:44:16.071Z,2.97
2022-09-02T06:46:46.339Z,3.53
2022-09-02T06:49:16.205Z,3.03
2022-09-02T06:51:47.125Z,2.80
2022-09-02T06:54:17.190Z,2.80
2022-09-02T06:56:49.251Z,2.50
2022-09-02T06:59:19.828Z,2.60
2022-09-02T07:01:49.984Z,2.30
2022-09-02T07:04:37.640Z,1.93
2022-09-02T07:07:07.323Z,2.23
2022-09-02T07:09:39.062Z,2.00
2022-09-02T07:12:13.033Z,1.87
2022-09-02T07:14:46.348Z,2.20
2022-09-02T07:17:21.763Z,2.00
2022-09-02T07:19:52.846Z,1.67
2022-09-02T07:22:19.374Z,2.70
2022-09-02T07:24:46.915Z,2.00
2022-09-02T07:27:14.669Z,1.80
2022-09-02T07:29:44.235Z,2.00
2022-09-02T07:32:11.804Z,1.80
2022-09-02T07:34:38.397Z,1.93
2022-09-02T07:37:10.595Z,2.50
2022-09-02T07:39:38.649Z,1.60
2022-09-02T07:42:05.707Z,1.77
2022-09-02T07:44:34.421Z,1.50
2022-09-02T07:47:01.467Z,1.87
2022-09-02T07:50:15.212Z,2.23
2022-09-02T07:52:16.963Z,1.93
2022-09-02T07:54:45.150Z,2.03
2022-09-02T07:57:11.722Z,1.73
2022-09-02T07:59:38.304Z,1.80
2022-09-02T08:02:05.828Z,1.87
2022-09-02T08:04:32.458Z,1.70
2022-09-02T08:07:02.617Z,2.20
2022-09-02T08:09:29.180Z,2.00
2022-09-02T08:11:55.711Z,1.63
2022-09-02T08:14:25.953Z,1.73
2022-09-02T08:16:53.135Z,1.50
2022-09-02T08:19:19.876Z,1.90
2022-09-02T08:21:46.362Z,1.83
2022-09-02T08:24:12.905Z,1.80
2022-09-02T08:26:39.451Z,1.57
2022-09-02T08:29:06.916Z,1.80
2022-09-02T08:31:33.992Z,1.30
2022-09-02T08:34:00.704Z,1.57
2022-09-02T08:36:27.837Z,1.47
2022-09-02T08:38:55.828Z,1.27
2022-09-02T08:41:22.323Z,1.50
2022-09-02T08:43:50.171Z,1.63
2022-09-02T08:46:18.093Z,1.40
2022-09-02T08:48:50.859Z,1.47
2022-09-02T08:51:20.120Z,1.40
2022-09-02T08:54:05.606Z,1.63
2022-09-02T08:56:32.355Z,1.43
2022-09-02T08:59:01.037Z,1.50
2022-09-02T09:01:28.016Z,1.60
2022-09-02T09:04:06.537Z,1.50
2022-09-02T09:06:39.075Z,1.30
2022-09-02T09:09:08.643Z,1.30
2022-09-02T09:11:42.760Z,1.20
2022-09-02T09:14:18.675Z,1.23
2022-09-02T09:16:45.305Z,1.43
2022-09-02T09:19:11.851Z,1.37
2022-09-02T09:21:40.690Z,1.23
2022-09-02T09:24:10.199Z,1.30
2022-09-02T09:26:39.350Z,1.30
2022-09-02T09:29:06.200Z,1.20
2022-09-02T09:31:33.414Z,1.40
2022-09-02T09:34:01.418Z,1.70
2022-09-02T09:36:46.368Z,1.97
2022-09-02T09:39:29.753Z,1.90
2022-09-02T09:42:04.238Z,1.37
2022-09-02T09:44:45.183Z,1.47
2022-09-02T09:47:18.056Z,1.37
2022-09-02T09:49:45.030Z,1.47
2022-09-02T09:52:11.629Z,1.10
2022-09-02T09:54:38.222Z,1.03
2022-09-02T09:57:16.166Z,1.37
2022-09-02T09:59:45.578Z,1.50
2022-09-02T10:02:23.458Z,1.60
2022-09-02T10:04:50.480Z,1.57
2022-09-02T10:07:35.294Z,1.50
2022-09-02T10:10:24.439Z,1.33
2022-09-02T10:12:52.021Z,1.00
2022-09-02T10:15:24.481Z,1.40
2022-09-02T10:18:14.021Z,1.23
2022-09-02T10:21:04.922Z,1.37
2022-09-02T10:23:37.036Z,1.33
2022-09-02T10:26:11.909Z,1.30
2022-09-02T10:29:14.239Z,1.47
2022-09-02T10:31:41.292Z,1.30
2022-09-02T10:34:07.839Z,1.20
2022-09-02T10:36:37.652Z,1.33
2022-09-02T10:39:11.506Z,1.13
2022-09-02T10:44:34.001Z,1.20
2022-09-02T10:47:19.079Z,1.20
2022-09-02T10:50:03.849Z,1.17
2022-09-02T10:52:51.002Z,1.67
2022-09-02T10:55:21.289Z,1.47
2022-09-02T10:57:53.957Z,1.70
2022-09-02T11:00:23.147Z,1.30
2022-09-02T11:02:59.065Z,1.33
2022-09-02T11:05:28.112Z,1.33
2022-09-02T11:08:06.831Z,1.37
2022-09-02T11:10:56.781Z,1.03
2022-09-02T11:13:31.355Z,1.00
2022-09-02T11:16:02.670Z,1.10
2022-09-02T11:18:46.176Z,1.03
2022-09-02T11:21:31.753Z,1.30
2022-09-02T11:23:59.435Z,1.20
2022-09-02T11:26:32.612Z,1.10
2022-09-02T11:29:46.087Z,2.00
2022-09-02T11:32:01.548Z,1.00
2022-09-02T11:34:40.195Z,1.20
2022-09-02T11:37:08.965Z,2.30
2022-09-02T11:39:53.982Z,1.20
2022-09-02T11:42:43.503Z,1.43
2022-09-02T11:45:22.993Z,1.30
2022-09-02T11:47:55.725Z,1.60
2022-09-02T11:50:38.731Z,1.17
2022-09-02T11:53:17.999Z,1.60
2022-09-02T11:55:50.118Z,1.30
2022-09-02T11:58:34.977Z,1.10
2022-09-02T12:01:06.284Z,1.70
2022-09-02T12:03:46.918Z,1.30
2022-09-02T12:06:21.152Z,1.40
2022-09-02T12:08:48.850Z,1.20
2022-09-02T12:11:39.877Z,1.40
2022-09-02T12:14:08.121Z,1.83
2022-09-02T12:16:36.424Z,1.40
2022-09-02T12:19:07.376Z,1.63
2022-09-02T12:21:38.947Z,1.50
2022-09-02T12:24:08.495Z,1.20
2022-09-02T12:26:38.296Z,1.43
2022-09-02T12:29:20.524Z,1.53
2022-09-02T12:31:48.470Z,1.10
2022-09-02T12:34:21.309Z,1.77
2022-09-02T12:37:03.405Z,1.27
2022-09-02T12:39:35.156Z,1.00
2022-09-02T12:42:06.913Z,1.17
2022-09-02T12:44:39.231Z,1.10
2022-09-02T12:47:09.311Z,1.57
2022-09-02T12:49:54.753Z,1.33
2022-09-02T12:52:40.946Z,1.50
2022-09-02T12:55:11.052Z,1.53
2022-09-02T12:57:41.948Z,1.30
2022-09-02T13:00:12.567Z,1.20
2022-09-02T13:02:45.360Z,1.40
2022-09-02T13:05:25.502Z,1.27
2022-09-02T13:08:11.066Z,1.13
2022-09-02T13:10:40.665Z,0.90
2022-09-02T13:13:22.626Z,1.23
2022-09-02T13:15:58.589Z,1.10
2022-09-02T13:18:34.644Z,1.13
2022-09-02T13:21:06.800Z,1.00
2022-09-02T13:23:49.459Z,1.23
2022-09-02T13:26:48.796Z,1.40
2022-09-02T13:29:35.689Z,1.10
2022-09-02T13:32:11.502Z,1.10
2022-09-02T13:34:42.425Z,1.30
2022-09-02T13:37:28.527Z,1.57
2022-09-02T13:39:55.226Z,1.20
2022-09-02T13:42:26.867Z,1.43
2022-09-02T13:45:10.024Z,1.13
2022-09-02T13:47:37.046Z,1.17
2022-09-02T13:50:05.420Z,1.33
2022-09-02T13:53:12.447Z,1.07
2022-09-02T13:55:20.576Z,1.20
2022-09-02T13:57:52.927Z,1.50
2022-09-02T14:00:26.491Z,1.13
2022-09-02T14:03:00.853Z,1.40
2022-09-02T14:05:27.882Z,1.43
2022-09-02T14:07:55.739Z,1.67
2022-09-02T14:10:23.460Z,1.30
2022-09-02T14:12:51.120Z,1.10
2022-09-02T14:15:23.486Z,1.80
2022-09-02T14:18:08.476Z,1.40
2022-09-02T14:20:35.425Z,1.03
2022-09-02T14:23:02.049Z,1.20
2022-09-02T14:25:32.104Z,1.40
2022-09-02T14:28:00.622Z,1.00
2022-09-02T14:30:29.620Z,1.20
2022-09-02T14:33:14.704Z,1.27
2022-09-02T14:35:41.532Z,1.20
2022-09-02T14:38:08.041Z,1.80
2022-09-02T14:40:36.775Z,1.20
2022-09-02T14:43:03.823Z,1.00
2022-09-02T14:45:31.457Z,1.60
2022-09-02T14:48:00.077Z,1.27
2022-09-02T14:50:28.961Z,1.17
2022-09-02T14:52:58.616Z,1.07
2022-09-02T14:55:44.264Z,1.20
2022-09-02T14:58:10.771Z,1.40
2022-09-02T15:00:39.196Z,1.50
2022-09-02T15:03:05.724Z,1.10
2022-09-02T15:05:32.270Z,1.33
2022-09-02T15:07:58.869Z,1.00
2022-09-02T15:10:27.846Z,1.40
2022-09-02T15:12:55.484Z,1.17
2022-09-02T15:15:22.030Z,1.10
2022-09-02T15:17:48.604Z,1.40
2022-09-02T15:20:15.551Z,1.23
2022-09-02T15:22:42.920Z,1.30
2022-09-02T15:25:09.621Z,1.20
2022-09-02T15:27:37.054Z,1.23
2022-09-02T15:30:04.461Z,1.13
2022-09-02T15:32:31.667Z,1.33
2022-09-02T15:34:58.229Z,1.20
2022-09-02T15:37:26.136Z,1.20
2022-09-02T15:39:52.794Z,1.10
2022-09-02T15:42:19.707Z,1.17
2022-09-02T15:44:46.370Z,1.50
2022-09-02T15:47:12.862Z,1.13
2022-09-02T15:49:39.362Z,0.83
2022-09-02T15:52:06.135Z,1.53
2022-09-02T15:54:32.683Z,1.10
2022-09-02T15:56:59.257Z,1.00
2022-09-02T15:59:27.399Z,1.27
2022-09-02T16:01:55.718Z,1.23
2022-09-02T16:04:22.302Z,1.70
2022-09-02T16:06:49.575Z,1.40
2022-09-02T16:09:17.157Z,1.03
2022-09-02T16:11:44.726Z,1.20
2022-09-02T16:14:11.820Z,1.13
2022-09-02T16:16:39.078Z,1.83
2022-09-02T16:19:06.997Z,1.20
2022-09-02T16:21:34.114Z,1.20
2022-09-02T16:24:00.610Z,1.40
2022-09-02T16:26:28.163Z,1.40
2022-09-02T16:28:56.029Z,1.40
2022-09-02T16:31:24.264Z,1.03
2022-09-02T16:34:01.629Z,1.33
2022-09-02T16:36:33.434Z,1.57
2022-09-02T16:39:03.189Z,1.37
2022-09-02T16:41:34.638Z,1.20
2022-09-02T16:44:02.464Z,1.33
2022-09-02T16:46:29.805Z,1.40
2022-09-02T16:48:56.417Z,1.33
2022-09-02T16:51:23.852Z,1.33
2022-09-02T16:54:03.547Z,1.30
2022-09-02T16:56:30.697Z,1.77
2022-09-02T16:59:00.603Z,1.23
2022-09-02T17:01:32.052Z,1.33
2022-09-02T17:04:00.186Z,1.20
2022-09-02T17:06:26.959Z,1.20
2022-09-02T17:08:54.074Z,1.33
2022-09-02T17:11:20.570Z,1.53
2022-09-02T17:13:51.574Z,1.27
2022-09-02T17:16:19.161Z,1.43
2022-09-02T17:18:45.818Z,1.27
2022-09-02T17:21:22.995Z,1.73
2022-09-02T17:23:49.884Z,1.50
2022-09-02T17:26:16.833Z,2.00
2022-09-02T17:28:50.314Z,1.53
2022-09-02T17:31:23.016Z,2.03
2022-09-02T17:33:50.491Z,2.83
2022-09-02T17:36:17.449Z,2.20
2022-09-02T17:38:44.089Z,1.67
2022-09-02T17:41:29.392Z,1.87
2022-09-02T17:43:56.085Z,2.70
2022-09-02T17:46:22.708Z,2.30
2022-09-02T17:49:15.209Z,2.30
2022-09-02T17:51:35.798Z,1.90
2022-09-02T17:54:02.418Z,1.70
2022-09-02T17:56:47.284Z,3.50
2022-09-02T17:59:17.981Z,1.90
2022-09-02T18:02:22.858Z,2.07
2022-09-02T18:05:02.872Z,1.60
2022-09-02T18:07:29.669Z,1.50
2022-09-02T18:09:56.316Z,1.27
2022-09-02T18:12:24.686Z,1.70
2022-09-02T18:14:55.999Z,1.50
2022-09-02T18:17:29.982Z,2.07
2022-09-02T18:20:15.238Z,1.40
2022-09-02T18:23:00.607Z,1.30
2022-09-02T18:25:35.489Z,1.33
2022-09-02T18:28:08.088Z,1.20
2022-09-02T18:30:54.682Z,1.80
2022-09-02T18:33:47.744Z,1.50
2022-09-02T18:36:34.536Z,1.60
2022-09-02T18:39:19.727Z,1.33
2022-09-02T18:41:49.305Z,1.40
2022-09-02T18:44:28.050Z,1.50
2022-09-02T18:46:59.052Z,1.70
2022-09-02T18:49:27.188Z,1.50
2022-09-02T18:51:55.886Z,1.47
2022-09-02T18:54:25.257Z,1.50
2022-09-02T18:56:54.372Z,1.40
2022-09-02T18:59:47.351Z,1.57
2022-09-02T19:02:32.702Z,1.23
2022-09-02T19:05:01.417Z,1.40
2022-09-02T19:07:47.073Z,1.63
2022-09-02T19:10:14.171Z,1.40
2022-09-02T19:12:42.204Z,1.90
2022-09-02T19:15:13.159Z,1.80
2022-09-02T19:17:40.014Z,1.90
2022-09-02T19:20:07.672Z,1.50
2022-09-02T19:22:37.213Z,1.43
2022-09-02T19:25:26.845Z,1.70
2022-09-02T19:27:54.716Z,1.67
2022-09-02T19:30:24.899Z,1.60
2022-09-02T19:32:52.604Z,1.23
2022-09-02T19:35:21.690Z,1.80
2022-09-02T19:37:51.389Z,1.30
2022-09-02T19:40:24.209Z,1.23
2022-09-02T19:42:52.722Z,1.30
2022-09-02T19:45:21.116Z,1.80
2022-09-02T19:48:07.051Z,1.63
2022-09-02T19:50:35.539Z,1.60
2022-09-02T19:53:02.108Z,1.80
2022-09-02T19:55:29.695Z,1.87
2022-09-02T19:57:56.221Z,1.80
2022-09-02T20:00:23.004Z,1.70
2022-09-02T20:02:51.148Z,1.70
2022-09-02T20:05:17.854Z,1.80
2022-09-02T20:07:44.395Z,1.30
2022-09-02T20:10:10.920Z,1.70
2022-09-02T20:12:37.481Z,1.80
2022-09-02T20:15:04.907Z,1.70
2022-09-02T20:17:32.006Z,1.57
2022-09-02T20:20:01.054Z,1.90
2022-09-02T20:22:28.878Z,1.70
2022-09-02T20:24:56.151Z,1.33
2022-09-02T20:27:25.747Z,1.53
2022-09-02T20:30:12.166Z,2.00
2022-09-02T20:32:43.014Z,1.70
2022-09-02T20:35:28.433Z,1.50
2022-09-02T20:38:14.680Z,1.60
2022-09-02T20:41:00.142Z,1.40
2022-09-02T20:43:29.648Z,1.37
2022-09-02T20:45:58.237Z,1.90
2022-09-02T20:48:39.853Z,2.17
2022-09-02T20:51:19.931Z,2.07
2022-09-02T20:54:01.227Z,1.60
2022-09-02T20:56:37.240Z,1.50
2022-09-02T20:59:07.622Z,1.27
2022-09-02T21:01:39.619Z,2.30
2022-09-02T21:04:13.665Z,2.20
2022-09-02T21:07:01.430Z,1.83
2022-09-02T21:09:38.472Z,1.70
2022-09-02T21:12:14.840Z,1.73
2022-09-02T21:14:48.897Z,1.60
2022-09-02T21:17:22.411Z,1.77
2022-09-02T21:19:54.968Z,1.33
2022-09-02T21:22:33.844Z,1.67
2022-09-02T21:25:06.682Z,1.40
2022-09-02T21:27:35.434Z,1.90
2022-09-02T21:30:06.541Z,1.43
2022-09-02T21:32:33.098Z,1.73
2022-09-02T21:35:02.649Z,1.70
2022-09-02T21:37:31.896Z,1.80
2022-09-02T21:40:04.168Z,1.57
2022-09-02T21:42:36.874Z,1.80
2022-09-02T21:45:25.514Z,1.60
2022-09-02T21:48:11.685Z,1.70
2022-09-02T21:50:45.459Z,1.83
2022-09-02T21:53:29.570Z,2.27
2022-09-02T21:55:59.362Z,2.37
2022-09-02T21:58:27.423Z,2.03
2022-09-02T22:01:00.505Z,1.93
2022-09-02T22:03:37.175Z,2.10
2022-09-02T22:06:06.769Z,2.07
2022-09-02T22:08:39.779Z,1.63
2022-09-02T22:11:06.310Z,1.83
2022-09-02T22:13:33.696Z,2.40
2022-09-02T22:16:18.991Z,2.23
2022-09-02T22:18:48.993Z,3.80
2022-09-02T22:21:39.851Z,2.13
2022-09-02T22:24:06.830Z,2.60
2022-09-02T22:26:36.402Z,2.10
2022-09-02T22:29:04.735Z,1.97
2022-09-02T22:31:32.845Z,2.13
2022-09-02T22:34:02.624Z,2.40
2022-09-02T22:36:41.144Z,2.77
2022-09-02T22:39:08.195Z,2.40
2022-09-02T22:41:34.737Z,2.00
2022-09-02T22:44:01.228Z,2.27
2022-09-02T22:46:46.639Z,1.93
2022-09-02T22:49:36.895Z,2.10
2022-09-02T22:52:35.788Z,2.23
2022-09-02T22:55:03.132Z,2.47
2022-09-02T22:57:29.640Z,1.73
2022-09-02T23:00:10.310Z,1.50
2022-09-02T23:02:46.038Z,1.53
2022-09-02T23:05:37.733Z,2.00
2022-09-02T23:08:07.826Z,1.43
2022-09-02T23:10:40.296Z,1.60
2022-09-02T23:13:12.996Z,2.07
2022-09-02T23:16:03.626Z,1.40
2022-09-02T23:18:35.197Z,1.87
2022-09-02T23:21:07.383Z,1.50
2022-09-02T23:23:44.982Z,1.93
2022-09-02T23:26:19.841Z,1.97
2022-09-02T23:29:04.957Z,1.73
2022-09-02T23:31:34.665Z,1.40
2022-09-02T23:34:10.660Z,1.70
2022-09-02T23:36:47.373Z,1.77
2022-09-02T23:39:25.854Z,1.33
2022-09-02T23:41:57.261Z,1.70
2022-09-02T23:44:25.629Z,1.73
2022-09-02T23:46:52.114Z,2.40
2022-09-02T23:49:22.206Z,1.67
2022-09-02T23:52:14.871Z,1.80
2022-09-02T23:54:50.490Z,1.80
2022-09-02T23:57:23.701Z,2.27
